createdAt,value
2018-08-27T00:00:05.670Z,958.75
2018-08-27T00:15:05.470Z,958.97
2018-08-27T00:30:05.587Z,958.67
2018-08-27T00:45:05.339Z,958.83
2018-08-27T01:00:05.227Z,958.75
2018-08-27T01:15:05.121Z,958.61
2018-08-27T01:30:05.231Z,958.7
2018-08-27T01:45:04.997Z,958.61
2018-08-27T02:00:05.193Z,958.67
2018-08-27T02:15:04.938Z,965.9
2018-08-27T02:30:05.634Z,966.04
2018-08-27T02:45:04.877Z,965.96
2018-08-27T03:00:04.947Z,966.01
2018-08-27T03:15:04.957Z,965.93
2018-08-27T03:30:05.079Z,958.78
2018-08-27T03:45:04.568Z,958.53
2018-08-27T04:00:05.257Z,965.85
2018-08-27T04:15:04.760Z,965.85
2018-08-27T04:30:05.465Z,965.9
2018-08-27T04:45:04.576Z,966.12
2018-08-27T05:00:04.516Z,966.23
2018-08-27T05:15:04.453Z,966.29
2018-08-27T05:30:04.505Z,966.31
2018-08-27T05:45:04.417Z,965.96
2018-08-27T06:00:04.330Z,966.12
2018-08-27T06:15:04.992Z,965.82
2018-08-27T06:30:05.220Z,965.6
2018-08-27T06:45:05.152Z,965.02
2018-08-27T07:00:05.078Z,964.12
2018-08-27T07:15:04.660Z,963.79
2018-08-27T07:30:05.261Z,962.53
2018-08-27T07:45:05.223Z,960.96
2018-08-27T08:00:05.233Z,961.95
2018-08-27T08:15:05.263Z,961.84
2018-08-27T08:30:04.415Z,962.17
2018-08-27T08:45:04.824Z,961.29
2018-08-27T09:00:05.264Z,959.87
2018-08-27T09:15:04.731Z,963.82
2018-08-27T09:30:04.846Z,963.6
2018-08-27T09:45:05.263Z,966.23
2018-08-27T10:00:04.758Z,966.06
2018-08-27T10:15:05.295Z,966.26
2018-08-27T10:30:05.247Z,965.9
2018-08-27T10:45:04.741Z,966.15
2018-08-27T11:00:05.039Z,966.15
2018-08-27T11:15:05.202Z,965.76
2018-08-27T11:30:04.927Z,965.9
2018-08-27T11:45:05.027Z,965.43
2018-08-27T12:00:04.481Z,965.26
2018-08-27T12:15:04.916Z,964.76
2018-08-27T12:30:05.015Z,964.9
2018-08-27T12:45:04.524Z,964.74
2018-08-27T13:00:04.491Z,964.63
2018-08-27T13:15:04.919Z,964.38
2018-08-27T13:30:05.305Z,963.99
2018-08-27T13:45:04.786Z,963.74
2018-08-27T14:00:05.653Z,963.19
2018-08-27T14:15:06.359Z,963.24
2018-08-27T14:30:05.156Z,963.24
2018-08-27T14:45:05.669Z,963.13
2018-08-27T15:00:04.790Z,962.94
2018-08-27T15:15:05.421Z,963.02
2018-08-27T15:30:04.695Z,962.91
2018-08-27T15:45:05.297Z,962.99
2018-08-27T16:00:05.415Z,963.05
2018-08-27T16:15:05.715Z,963.05
2018-08-27T16:30:04.662Z,963.22
2018-08-27T16:45:05.486Z,963.02
2018-08-27T17:00:05.211Z,962.99
2018-08-27T17:15:05.421Z,962.94
2018-08-27T17:30:04.829Z,963.27
2018-08-27T17:45:20.869Z,963.49
2018-08-27T18:00:05.327Z,963.63
2018-08-27T18:15:05.423Z,964.05
2018-08-27T18:30:05.455Z,964.35
2018-08-27T18:45:04.952Z,964.85
2018-08-27T19:00:05.047Z,965.23
2018-08-27T19:15:04.844Z,965.54
2018-08-27T19:30:04.882Z,965.95
2018-08-27T19:45:05.020Z,966.12
2018-08-27T20:00:05.132Z,966.15
2018-08-27T20:15:04.557Z,966.37
2018-08-27T20:30:05.007Z,966.78
2018-08-27T20:45:04.959Z,967.03
2018-08-27T21:00:05.239Z,966.95
2018-08-27T21:15:04.970Z,966.98
2018-08-27T21:30:05.383Z,967.23
2018-08-27T21:45:11.040Z,967.81
2018-08-27T22:00:11.082Z,968
2018-08-27T22:15:05.181Z,968.28
2018-08-27T22:30:05.282Z,961.62
2018-08-27T22:45:04.695Z,961.98
2018-08-27T23:00:04.578Z,961.9
2018-08-27T23:15:05.218Z,962.23
2018-08-27T23:30:04.930Z,962.53
2018-08-27T23:45:04.599Z,962.69
